sensor_id;sensor_type;location;lat;lon;timestamp;temperature;humidity
6407;DHT22;3236;51.022;6.818;2023-04-03T00:00:42;1.90;99.90
6407;DHT22;3236;51.022;6.818;2023-04-03T00:03:09;1.90;99.90
6407;DHT22;3236;51.022;6.818;2023-04-03T00:05:36;1.90;99.90
6407;DHT22;3236;51.022;6.818;2023-04-03T00:08:04;2.00;99.90
6407;DHT22;3236;51.022;6.818;2023-04-03T00:10:33;1.90;99.90
6407;DHT22;3236;51.022;6.818;2023-04-03T00:13:01;1.90;99.90
6407;DHT22;3236;51.022;6.818;2023-04-03T00:15:28;1.80;99.90
6407;DHT22;3236;51.022;6.818;2023-04-03T00:17:55;1.80;99.90
6407;DHT22;3236;51.022;6.818;2023-04-03T00:20:22;2.10;99.90
6407;DHT22;3236;51.022;6.818;2023-04-03T00:22:49;1.60;99.90
6407;DHT22;3236;51.022;6.818;2023-04-03T00:25:18;1.50;99.90
6407;DHT22;3236;51.022;6.818;2023-04-03T00:27:45;1.60;99.90
6407;DHT22;3236;51.022;6.818;2023-04-03T00:30:15;1.60;99.90
6407;DHT22;3236;51.022;6.818;2023-04-03T00:32:42;1.50;99.90
6407;DHT22;3236;51.022;6.818;2023-04-03T00:35:10;1.10;99.90
6407;DHT22;3236;51.022;6.818;2023-04-03T00:37:39;1.60;99.90
6407;DHT22;3236;51.022;6.818;2023-04-03T00:40:08;1.50;99.90
6407;DHT22;3236;51.022;6.818;2023-04-03T00:42:37;1.30;99.90
6407;DHT22;3236;51.022;6.818;2023-04-03T00:45:32;1.30;99.90
6407;DHT22;3236;51.022;6.818;2023-04-03T00:48:00;1.20;99.90
6407;DHT22;3236;51.022;6.818;2023-04-03T00:50:29;1.10;99.90
6407;DHT22;3236;51.022;6.818;2023-04-03T00:52:57;1.30;99.90
6407;DHT22;3236;51.022;6.818;2023-04-03T00:55:25;1.30;99.90
6407;DHT22;3236;51.022;6.818;2023-04-03T00:57:54;1.20;99.90
6407;DHT22;3236;51.022;6.818;2023-04-03T01:00:25;1.30;99.90
6407;DHT22;3236;51.022;6.818;2023-04-03T01:02:53;1.20;99.90
6407;DHT22;3236;51.022;6.818;2023-04-03T01:05:23;1.00;99.90
6407;DHT22;3236;51.022;6.818;2023-04-03T01:07:51;1.10;99.90
6407;DHT22;3236;51.022;6.818;2023-04-03T01:10:20;1.00;99.90
6407;DHT22;3236;51.022;6.818;2023-04-03T01:12:48;0.80;99.90
6407;DHT22;3236;51.022;6.818;2023-04-03T01:15:19;0.90;99.90
6407;DHT22;3236;51.022;6.818;2023-04-03T01:17:50;1.00;99.90
6407;DHT22;3236;51.022;6.818;2023-04-03T01:23:57;1.10;99.90
6407;DHT22;3236;51.022;6.818;2023-04-03T01:26:27;1.00;99.90
6407;DHT22;3236;51.022;6.818;2023-04-03T01:29:00;1.10;99.90
6407;DHT22;3236;51.022;6.818;2023-04-03T01:31:32;1.10;99.90
6407;DHT22;3236;51.022;6.818;2023-04-03T01:34:02;1.20;99.90
6407;DHT22;3236;51.022;6.818;2023-04-03T01:36:31;1.20;99.90
6407;DHT22;3236;51.022;6.818;2023-04-03T01:38:58;1.00;99.90
6407;DHT22;3236;51.022;6.818;2023-04-03T01:41:27;1.30;99.90
6407;DHT22;3236;51.022;6.818;2023-04-03T01:43:54;1.10;99.90
6407;DHT22;3236;51.022;6.818;2023-04-03T01:46:24;0.90;99.90
6407;DHT22;3236;51.022;6.818;2023-04-03T01:48:51;0.70;99.90
6407;DHT22;3236;51.022;6.818;2023-04-03T01:51:20;1.20;99.90
6407;DHT22;3236;51.022;6.818;2023-04-03T01:53:47;0.80;99.90
6407;DHT22;3236;51.022;6.818;2023-04-03T01:56:14;0.80;99.90
6407;DHT22;3236;51.022;6.818;2023-04-03T01:58:41;0.90;99.90
6407;DHT22;3236;51.022;6.818;2023-04-03T02:01:09;0.80;99.90
6407;DHT22;3236;51.022;6.818;2023-04-03T02:03:36;0.80;99.90
6407;DHT22;3236;51.022;6.818;2023-04-03T02:06:06;0.80;99.90
6407;DHT22;3236;51.022;6.818;2023-04-03T02:08:35;0.80;99.90
6407;DHT22;3236;51.022;6.818;2023-04-03T02:11:02;1.00;99.90
6407;DHT22;3236;51.022;6.818;2023-04-03T02:13:29;0.60;99.90
6407;DHT22;3236;51.022;6.818;2023-04-03T02:16:07;0.80;99.90
6407;DHT22;3236;51.022;6.818;2023-04-03T02:18:35;0.80;99.90
6407;DHT22;3236;51.022;6.818;2023-04-03T02:21:03;0.80;99.90
6407;DHT22;3236;51.022;6.818;2023-04-03T02:23:30;0.70;99.90
6407;DHT22;3236;51.022;6.818;2023-04-03T02:26:06;0.60;99.90
6407;DHT22;3236;51.022;6.818;2023-04-03T02:28:34;0.20;99.90
6407;DHT22;3236;51.022;6.818;2023-04-03T02:31:10;0.40;99.90
6407;DHT22;3236;51.022;6.818;2023-04-03T02:33:37;0.30;99.90
6407;DHT22;3236;51.022;6.818;2023-04-03T02:36:07;0.40;99.90
6407;DHT22;3236;51.022;6.818;2023-04-03T02:38:34;0.40;99.90
6407;DHT22;3236;51.022;6.818;2023-04-03T02:41:02;0.60;99.90
6407;DHT22;3236;51.022;6.818;2023-04-03T02:43:30;0.30;99.90
6407;DHT22;3236;51.022;6.818;2023-04-03T02:45:57;0.40;99.90
6407;DHT22;3236;51.022;6.818;2023-04-03T02:48:25;0.40;99.90
6407;DHT22;3236;51.022;6.818;2023-04-03T02:50:52;0.40;99.90
6407;DHT22;3236;51.022;6.818;2023-04-03T02:53:19;0.40;99.90
6407;DHT22;3236;51.022;6.818;2023-04-03T02:55:47;0.70;99.90
6407;DHT22;3236;51.022;6.818;2023-04-03T02:58:14;0.20;99.90
6407;DHT22;3236;51.022;6.818;2023-04-03T03:00:42;0.10;99.90
6407;DHT22;3236;51.022;6.818;2023-04-03T03:03:09;0.20;99.90
6407;DHT22;3236;51.022;6.818;2023-04-03T03:05:36;0.10;99.90
6407;DHT22;3236;51.022;6.818;2023-04-03T03:08:03;0.30;99.90
6407;DHT22;3236;51.022;6.818;2023-04-03T03:10:30;0.40;99.90
6407;DHT22;3236;51.022;6.818;2023-04-03T03:15:28;0.70;99.90
6407;DHT22;3236;51.022;6.818;2023-04-03T03:17:56;0.20;99.90
6407;DHT22;3236;51.022;6.818;2023-04-03T03:20:23;0.50;99.90
6407;DHT22;3236;51.022;6.818;2023-04-03T03:22:57;0.40;99.90
6407;DHT22;3236;51.022;6.818;2023-04-03T03:25:24;0.20;99.90
6407;DHT22;3236;51.022;6.818;2023-04-03T03:27:51;0.60;99.90
6407;DHT22;3236;51.022;6.818;2023-04-03T03:30:18;0.00;99.90
6407;DHT22;3236;51.022;6.818;2023-04-03T03:32:45;0.00;99.90
6407;DHT22;3236;51.022;6.818;2023-04-03T03:35:13;0.10;99.90
6407;DHT22;3236;51.022;6.818;2023-04-03T03:37:40;0.00;99.90
6407;DHT22;3236;51.022;6.818;2023-04-03T03:40:09;0.10;99.90
6407;DHT22;3236;51.022;6.818;2023-04-03T03:42:38;0.10;99.90
6407;DHT22;3236;51.022;6.818;2023-04-03T03:45:06;-0.10;99.90
6407;DHT22;3236;51.022;6.818;2023-04-03T03:47:33;-0.20;99.90
6407;DHT22;3236;51.022;6.818;2023-04-03T03:50:01;-0.10;99.90
6407;DHT22;3236;51.022;6.818;2023-04-03T03:52:29;0.20;99.90
6407;DHT22;3236;51.022;6.818;2023-04-03T03:54:56;-0.10;99.90
6407;DHT22;3236;51.022;6.818;2023-04-03T03:57:24;-0.10;99.90
6407;DHT22;3236;51.022;6.818;2023-04-03T03:59:52;-0.30;99.90
6407;DHT22;3236;51.022;6.818;2023-04-03T04:02:19;0.10;99.90
6407;DHT22;3236;51.022;6.818;2023-04-03T04:04:46;0.10;99.90
6407;DHT22;3236;51.022;6.818;2023-04-03T04:07:13;0.20;99.90
6407;DHT22;3236;51.022;6.818;2023-04-03T04:09:42;-0.20;99.90
6407;DHT22;3236;51.022;6.818;2023-04-03T04:12:09;0.00;99.90
6407;DHT22;3236;51.022;6.818;2023-04-03T04:14:36;-0.10;99.90
6407;DHT22;3236;51.022;6.818;2023-04-03T04:17:03;0.20;99.90
6407;DHT22;3236;51.022;6.818;2023-04-03T04:19:30;-0.10;99.90
6407;DHT22;3236;51.022;6.818;2023-04-03T04:22:01;-0.10;99.90
6407;DHT22;3236;51.022;6.818;2023-04-03T04:24:28;-0.10;99.90
6407;DHT22;3236;51.022;6.818;2023-04-03T04:26:57;-0.10;99.90
6407;DHT22;3236;51.022;6.818;2023-04-03T04:29:24;0.10;99.90
6407;DHT22;3236;51.022;6.818;2023-04-03T04:31:51;0.10;99.90
6407;DHT22;3236;51.022;6.818;2023-04-03T04:34:18;-0.20;99.90
6407;DHT22;3236;51.022;6.818;2023-04-03T04:36:45;0.00;99.90
6407;DHT22;3236;51.022;6.818;2023-04-03T04:39:12;0.00;99.90
6407;DHT22;3236;51.022;6.818;2023-04-03T04:41:45;0.10;99.90
6407;DHT22;3236;51.022;6.818;2023-04-03T04:44:16;-0.30;99.90
6407;DHT22;3236;51.022;6.818;2023-04-03T04:49:11;-0.10;99.90
6407;DHT22;3236;51.022;6.818;2023-04-03T04:51:38;-0.10;99.90
6407;DHT22;3236;51.022;6.818;2023-04-03T04:54:05;-0.20;99.90
6407;DHT22;3236;51.022;6.818;2023-04-03T04:56:35;-0.20;99.90
6407;DHT22;3236;51.022;6.818;2023-04-03T04:59:02;-0.20;99.90
6407;DHT22;3236;51.022;6.818;2023-04-03T05:01:33;-0.30;99.90
6407;DHT22;3236;51.022;6.818;2023-04-03T05:04:01;-0.40;99.90
6407;DHT22;3236;51.022;6.818;2023-04-03T05:06:31;-0.30;99.90
6407;DHT22;3236;51.022;6.818;2023-04-03T05:09:01;-0.40;99.90
6407;DHT22;3236;51.022;6.818;2023-04-03T05:11:31;-0.50;99.90
6407;DHT22;3236;51.022;6.818;2023-04-03T05:13:58;-0.40;99.90
6407;DHT22;3236;51.022;6.818;2023-04-03T05:16:28;-0.20;99.90
6407;DHT22;3236;51.022;6.818;2023-04-03T05:18:59;-0.20;99.90
6407;DHT22;3236;51.022;6.818;2023-04-03T05:21:27;-0.50;99.90
6407;DHT22;3236;51.022;6.818;2023-04-03T05:23:57;-0.70;99.90
6407;DHT22;3236;51.022;6.818;2023-04-03T05:26:25;-0.40;99.90
6407;DHT22;3236;51.022;6.818;2023-04-03T05:28:52;-0.60;99.90
6407;DHT22;3236;51.022;6.818;2023-04-03T05:31:19;-0.30;99.90
6407;DHT22;3236;51.022;6.818;2023-04-03T05:33:47;-0.40;99.90
6407;DHT22;3236;51.022;6.818;2023-04-03T05:36:15;-0.70;99.90
6407;DHT22;3236;51.022;6.818;2023-04-03T05:38:43;-0.30;99.90
6407;DHT22;3236;51.022;6.818;2023-04-03T05:41:10;-0.30;99.90
6407;DHT22;3236;51.022;6.818;2023-04-03T05:43:41;0.00;99.90
6407;DHT22;3236;51.022;6.818;2023-04-03T05:46:23;0.30;99.90
6407;DHT22;3236;51.022;6.818;2023-04-03T05:48:50;0.10;99.90
6407;DHT22;3236;51.022;6.818;2023-04-03T05:51:20;0.20;99.90
6407;DHT22;3236;51.022;6.818;2023-04-03T05:53:48;0.10;99.90
6407;DHT22;3236;51.022;6.818;2023-04-03T05:56:21;0.20;99.90
6407;DHT22;3236;51.022;6.818;2023-04-03T05:58:51;-0.10;99.90
6407;DHT22;3236;51.022;6.818;2023-04-03T06:01:18;0.50;99.90
6407;DHT22;3236;51.022;6.818;2023-04-03T06:03:46;0.30;99.90
6407;DHT22;3236;51.022;6.818;2023-04-03T06:06:13;0.20;99.90
6407;DHT22;3236;51.022;6.818;2023-04-03T06:08:45;0.40;99.90
6407;DHT22;3236;51.022;6.818;2023-04-03T06:11:19;0.90;99.90
6407;DHT22;3236;51.022;6.818;2023-04-03T06:13:47;0.90;99.90
6407;DHT22;3236;51.022;6.818;2023-04-03T06:16:15;1.40;99.90
6407;DHT22;3236;51.022;6.818;2023-04-03T06:18:43;1.60;99.90
6407;DHT22;3236;51.022;6.818;2023-04-03T06:21:10;1.50;99.90
6407;DHT22;3236;51.022;6.818;2023-04-03T06:23:37;1.60;99.90
6407;DHT22;3236;51.022;6.818;2023-04-03T06:26:07;2.00;99.90
6407;DHT22;3236;51.022;6.818;2023-04-03T06:28:36;1.70;99.90
6407;DHT22;3236;51.022;6.818;2023-04-03T06:31:03;2.00;99.90
6407;DHT22;3236;51.022;6.818;2023-04-03T06:33:30;2.50;99.90
6407;DHT22;3236;51.022;6.818;2023-04-03T06:35:58;2.30;99.90
6407;DHT22;3236;51.022;6.818;2023-04-03T06:38:25;2.40;99.90
6407;DHT22;3236;51.022;6.818;2023-04-03T06:40:52;2.80;99.90
6407;DHT22;3236;51.022;6.818;2023-04-03T06:43:21;2.80;99.90
6407;DHT22;3236;51.022;6.818;2023-04-03T06:45:48;2.80;99.90
6407;DHT22;3236;51.022;6.818;2023-04-03T06:48:16;3.20;99.90
6407;DHT22;3236;51.022;6.818;2023-04-03T06:50:43;2.80;99.90
6407;DHT22;3236;51.022;6.818;2023-04-03T06:55:39;3.30;99.90
6407;DHT22;3236;51.022;6.818;2023-04-03T06:58:07;3.50;99.90
6407;DHT22;3236;51.022;6.818;2023-04-03T07:00:36;3.50;99.90
6407;DHT22;3236;51.022;6.818;2023-04-03T07:03:05;3.50;99.90
6407;DHT22;3236;51.022;6.818;2023-04-03T07:05:32;4.00;99.90
6407;DHT22;3236;51.022;6.818;2023-04-03T07:08:00;3.90;99.90
6407;DHT22;3236;51.022;6.818;2023-04-03T07:10:29;3.80;99.90
6407;DHT22;3236;51.022;6.818;2023-04-03T07:12:56;4.10;99.90
6407;DHT22;3236;51.022;6.818;2023-04-03T07:15:24;4.20;99.90
6407;DHT22;3236;51.022;6.818;2023-04-03T07:17:52;4.30;99.90
6407;DHT22;3236;51.022;6.818;2023-04-03T07:20:20;4.20;99.90
6407;DHT22;3236;51.022;6.818;2023-04-03T07:22:47;4.50;99.90
6407;DHT22;3236;51.022;6.818;2023-04-03T07:25:14;4.40;99.90
6407;DHT22;3236;51.022;6.818;2023-04-03T07:27:41;4.40;99.90
6407;DHT22;3236;51.022;6.818;2023-04-03T07:30:09;4.80;99.90
6407;DHT22;3236;51.022;6.818;2023-04-03T07:32:37;4.80;99.90
6407;DHT22;3236;51.022;6.818;2023-04-03T07:35:05;5.20;99.90
6407;DHT22;3236;51.022;6.818;2023-04-03T07:37:33;4.70;99.90
6407;DHT22;3236;51.022;6.818;2023-04-03T07:40:00;5.30;99.90
6407;DHT22;3236;51.022;6.818;2023-04-03T07:42:29;5.10;99.90
6407;DHT22;3236;51.022;6.818;2023-04-03T07:44:57;5.10;99.90
6407;DHT22;3236;51.022;6.818;2023-04-03T07:47:24;4.80;99.90
6407;DHT22;3236;51.022;6.818;2023-04-03T07:49:52;5.30;99.90
6407;DHT22;3236;51.022;6.818;2023-04-03T07:52:20;5.60;99.90
6407;DHT22;3236;51.022;6.818;2023-04-03T07:54:51;5.10;99.90
6407;DHT22;3236;51.022;6.818;2023-04-03T07:57:20;5.10;99.90
6407;DHT22;3236;51.022;6.818;2023-04-03T07:59:47;5.30;99.90
6407;DHT22;3236;51.022;6.818;2023-04-03T08:02:14;5.60;99.90
6407;DHT22;3236;51.022;6.818;2023-04-03T08:04:41;5.40;99.90
6407;DHT22;3236;51.022;6.818;2023-04-03T08:07:09;5.60;99.90
6407;DHT22;3236;51.022;6.818;2023-04-03T08:09:39;5.80;99.90
6407;DHT22;3236;51.022;6.818;2023-04-03T08:12:06;5.80;99.90
6407;DHT22;3236;51.022;6.818;2023-04-03T08:14:33;5.70;99.90
6407;DHT22;3236;51.022;6.818;2023-04-03T08:17:01;6.10;99.90
6407;DHT22;3236;51.022;6.818;2023-04-03T08:19:30;6.90;99.90
6407;DHT22;3236;51.022;6.818;2023-04-03T08:21:57;5.80;99.90
6407;DHT22;3236;51.022;6.818;2023-04-03T08:24:26;5.70;99.90
6407;DHT22;3236;51.022;6.818;2023-04-03T08:26:55;5.90;99.90
6407;DHT22;3236;51.022;6.818;2023-04-03T08:29:22;6.40;99.90
6407;DHT22;3236;51.022;6.818;2023-04-03T08:31:49;6.20;99.90
6407;DHT22;3236;51.022;6.818;2023-04-03T08:34:17;5.80;99.90
6407;DHT22;3236;51.022;6.818;2023-04-03T08:36:45;6.10;99.90
6407;DHT22;3236;51.022;6.818;2023-04-03T08:39:13;5.90;99.90
6407;DHT22;3236;51.022;6.818;2023-04-03T08:41:44;6.20;99.90
6407;DHT22;3236;51.022;6.818;2023-04-03T08:44:22;6.20;99.90
6407;DHT22;3236;51.022;6.818;2023-04-03T08:47:02;6.10;99.90
6407;DHT22;3236;51.022;6.818;2023-04-03T08:49:39;6.50;99.90
6407;DHT22;3236;51.022;6.818;2023-04-03T08:52:14;6.40;99.90
6407;DHT22;3236;51.022;6.818;2023-04-03T08:54:49;6.10;99.90
6407;DHT22;3236;51.022;6.818;2023-04-03T08:57:20;6.40;99.90
6407;DHT22;3236;51.022;6.818;2023-04-03T08:59:51;6.70;99.90
6407;DHT22;3236;51.022;6.818;2023-04-03T09:02:27;6.20;99.90
6407;DHT22;3236;51.022;6.818;2023-04-03T09:04:55;6.40;99.90
6407;DHT22;3236;51.022;6.818;2023-04-03T09:07:29;6.50;99.90
6407;DHT22;3236;51.022;6.818;2023-04-03T09:09:59;6.50;99.90
6407;DHT22;3236;51.022;6.818;2023-04-03T09:12:33;6.40;99.90
6407;DHT22;3236;51.022;6.818;2023-04-03T09:17:47;6.60;99.90
6407;DHT22;3236;51.022;6.818;2023-04-03T09:20:21;6.70;99.90
6407;DHT22;3236;51.022;6.818;2023-04-03T09:22:52;6.90;99.90
6407;DHT22;3236;51.022;6.818;2023-04-03T09:25:22;6.80;99.90
6407;DHT22;3236;51.022;6.818;2023-04-03T09:27:51;7.10;99.90
6407;DHT22;3236;51.022;6.818;2023-04-03T09:30:21;6.90;99.90
6407;DHT22;3236;51.022;6.818;2023-04-03T09:32:51;7.00;99.90
6407;DHT22;3236;51.022;6.818;2023-04-03T09:35:24;7.10;99.90
6407;DHT22;3236;51.022;6.818;2023-04-03T09:37:53;6.90;99.90
6407;DHT22;3236;51.022;6.818;2023-04-03T09:40:31;7.10;99.90
6407;DHT22;3236;51.022;6.818;2023-04-03T09:43:02;7.40;99.90
6407;DHT22;3236;51.022;6.818;2023-04-03T09:45:33;7.00;99.90
6407;DHT22;3236;51.022;6.818;2023-04-03T09:48:06;7.30;99.90
6407;DHT22;3236;51.022;6.818;2023-04-03T09:50:34;7.60;99.90
6407;DHT22;3236;51.022;6.818;2023-04-03T09:53:29;7.60;97.70
6407;DHT22;3236;51.022;6.818;2023-04-03T09:55:58;7.70;98.40
6407;DHT22;3236;51.022;6.818;2023-04-03T09:58:29;7.80;97.80
6407;DHT22;3236;51.022;6.818;2023-04-03T10:01:02;7.80;97.90
6407;DHT22;3236;51.022;6.818;2023-04-03T10:03:31;8.10;97.60
6407;DHT22;3236;51.022;6.818;2023-04-03T10:06:00;7.80;97.70
6407;DHT22;3236;51.022;6.818;2023-04-03T10:08:29;7.70;97.20
6407;DHT22;3236;51.022;6.818;2023-04-03T10:11:12;8.00;97.60
6407;DHT22;3236;51.022;6.818;2023-04-03T10:13:54;7.90;96.70
6407;DHT22;3236;51.022;6.818;2023-04-03T10:16:28;7.80;96.20
6407;DHT22;3236;51.022;6.818;2023-04-03T10:22:01;7.80;96.80
6407;DHT22;3236;51.022;6.818;2023-04-03T10:24:49;8.10;96.60
6407;DHT22;3236;51.022;6.818;2023-04-03T10:27:26;8.10;97.70
6407;DHT22;3236;51.022;6.818;2023-04-03T10:30:04;8.10;97.40
6407;DHT22;3236;51.022;6.818;2023-04-03T10:32:46;8.40;96.60
6407;DHT22;3236;51.022;6.818;2023-04-03T10:35:24;8.30;95.00
6407;DHT22;3236;51.022;6.818;2023-04-03T10:38:03;8.20;96.00
6407;DHT22;3236;51.022;6.818;2023-04-03T10:40:39;8.60;95.70
6407;DHT22;3236;51.022;6.818;2023-04-03T10:43:15;8.50;95.00
6407;DHT22;3236;51.022;6.818;2023-04-03T10:45:57;8.40;94.90
6407;DHT22;3236;51.022;6.818;2023-04-03T10:51:25;8.60;94.50
6407;DHT22;3236;51.022;6.818;2023-04-03T10:53:58;8.70;94.00
6407;DHT22;3236;51.022;6.818;2023-04-03T10:56:32;8.90;95.60
6407;DHT22;3236;51.022;6.818;2023-04-03T10:59:13;9.20;93.60
6407;DHT22;3236;51.022;6.818;2023-04-03T11:01:43;9.20;94.00
6407;DHT22;3236;51.022;6.818;2023-04-03T11:04:14;10.10;92.20
6407;DHT22;3236;51.022;6.818;2023-04-03T11:06:46;10.50;93.00
6407;DHT22;3236;51.022;6.818;2023-04-03T11:09:20;11.30;91.00
6407;DHT22;3236;51.022;6.818;2023-04-03T11:11:53;12.10;88.50
6407;DHT22;3236;51.022;6.818;2023-04-03T11:14:27;12.10;87.70
6407;DHT22;3236;51.022;6.818;2023-04-03T11:17:05;12.40;86.90
6407;DHT22;3236;51.022;6.818;2023-04-03T11:19:41;13.50;86.00
6407;DHT22;3236;51.022;6.818;2023-04-03T11:22:28;14.30;76.00
6407;DHT22;3236;51.022;6.818;2023-04-03T11:25:04;14.00;78.30
6407;DHT22;3236;51.022;6.818;2023-04-03T11:27:41;14.50;76.60
6407;DHT22;3236;51.022;6.818;2023-04-03T11:30:16;15.10;68.70
6407;DHT22;3236;51.022;6.818;2023-04-03T11:33:09;14.80;60.90
6407;DHT22;3236;51.022;6.818;2023-04-03T11:35:44;14.20;60.80
6407;DHT22;3236;51.022;6.818;2023-04-03T11:38:19;14.00;59.50
6407;DHT22;3236;51.022;6.818;2023-04-03T11:40:49;14.00;59.00
6407;DHT22;3236;51.022;6.818;2023-04-03T11:43:22;14.60;62.40
6407;DHT22;3236;51.022;6.818;2023-04-03T11:45:54;14.60;62.90
6407;DHT22;3236;51.022;6.818;2023-04-03T11:48:47;14.60;56.80
6407;DHT22;3236;51.022;6.818;2023-04-03T11:54:47;14.50;54.40
6407;DHT22;3236;51.022;6.818;2023-04-03T11:57:45;14.50;54.10
6407;DHT22;3236;51.022;6.818;2023-04-03T12:00:52;15.50;56.10
6407;DHT22;3236;51.022;6.818;2023-04-03T12:06:50;15.40;54.00
6407;DHT22;3236;51.022;6.818;2023-04-03T12:09:32;15.20;53.40
6407;DHT22;3236;51.022;6.818;2023-04-03T12:12:26;15.60;53.10
6407;DHT22;3236;51.022;6.818;2023-04-03T12:14:54;15.40;53.10
6407;DHT22;3236;51.022;6.818;2023-04-03T12:17:26;16.00;51.60
6407;DHT22;3236;51.022;6.818;2023-04-03T12:22:25;15.80;48.80
6407;DHT22;3236;51.022;6.818;2023-04-03T12:27:34;15.10;44.70
6407;DHT22;3236;51.022;6.818;2023-04-03T12:30:27;15.00;45.20
6407;DHT22;3236;51.022;6.818;2023-04-03T12:33:27;15.40;44.50
6407;DHT22;3236;51.022;6.818;2023-04-03T12:36:13;15.50;44.80
6407;DHT22;3236;51.022;6.818;2023-04-03T12:41:49;15.20;45.20
6407;DHT22;3236;51.022;6.818;2023-04-03T12:44:42;15.10;43.40
6407;DHT22;3236;51.022;6.818;2023-04-03T12:47:27;15.20;42.20
6407;DHT22;3236;51.022;6.818;2023-04-03T12:49:55;15.70;41.50
6407;DHT22;3236;51.022;6.818;2023-04-03T12:52:32;15.80;42.00
6407;DHT22;3236;51.022;6.818;2023-04-03T12:55:14;16.70;45.00
6407;DHT22;3236;51.022;6.818;2023-04-03T12:57:44;17.20;42.60
6407;DHT22;3236;51.022;6.818;2023-04-03T13:00:30;17.40;39.40
6407;DHT22;3236;51.022;6.818;2023-04-03T13:02:58;16.80;41.00
6407;DHT22;3236;51.022;6.818;2023-04-03T13:08:00;17.70;40.50
6407;DHT22;3236;51.022;6.818;2023-04-03T13:10:29;17.40;40.00
6407;DHT22;3236;51.022;6.818;2023-04-03T13:12:58;17.80;42.80
6407;DHT22;3236;51.022;6.818;2023-04-03T13:15:39;18.40;42.50
6407;DHT22;3236;51.022;6.818;2023-04-03T13:18:20;18.50;41.20
6407;DHT22;3236;51.022;6.818;2023-04-03T13:20:49;19.00;37.20
6407;DHT22;3236;51.022;6.818;2023-04-03T13:23:17;18.30;37.30
6407;DHT22;3236;51.022;6.818;2023-04-03T13:25:49;17.60;38.70
6407;DHT22;3236;51.022;6.818;2023-04-03T13:28:20;17.50;39.50
6407;DHT22;3236;51.022;6.818;2023-04-03T13:31:21;16.70;38.20
6407;DHT22;3236;51.022;6.818;2023-04-03T13:33:57;16.90;40.10
6407;DHT22;3236;51.022;6.818;2023-04-03T13:36:31;17.70;39.50
6407;DHT22;3236;51.022;6.818;2023-04-03T13:39:00;17.80;41.10
6407;DHT22;3236;51.022;6.818;2023-04-03T13:41:31;18.20;40.10
6407;DHT22;3236;51.022;6.818;2023-04-03T13:44:17;18.20;40.50
6407;DHT22;3236;51.022;6.818;2023-04-03T13:46:50;19.20;42.00
6407;DHT22;3236;51.022;6.818;2023-04-03T13:49:19;19.30;42.50
6407;DHT22;3236;51.022;6.818;2023-04-03T13:51:47;19.90;37.70
6407;DHT22;3236;51.022;6.818;2023-04-03T13:54:19;19.60;40.10
6407;DHT22;3236;51.022;6.818;2023-04-03T13:56:53;19.50;40.30
6407;DHT22;3236;51.022;6.818;2023-04-03T13:59:23;19.30;38.80
6407;DHT22;3236;51.022;6.818;2023-04-03T14:01:56;19.30;39.80
6407;DHT22;3236;51.022;6.818;2023-04-03T14:04:46;18.60;37.60
6407;DHT22;3236;51.022;6.818;2023-04-03T14:07:16;17.80;39.30
6407;DHT22;3236;51.022;6.818;2023-04-03T14:12:17;17.80;40.30
6407;DHT22;3236;51.022;6.818;2023-04-03T14:17:17;18.90;39.80
6407;DHT22;3236;51.022;6.818;2023-04-03T14:19:49;17.70;38.90
6407;DHT22;3236;51.022;6.818;2023-04-03T14:22:27;17.10;40.40
6407;DHT22;3236;51.022;6.818;2023-04-03T14:27:34;16.80;41.80
6407;DHT22;3236;51.022;6.818;2023-04-03T14:30:13;16.80;42.20
6407;DHT22;3236;51.022;6.818;2023-04-03T14:32:43;17.40;43.40
6407;DHT22;3236;51.022;6.818;2023-04-03T14:35:10;17.50;41.00
6407;DHT22;3236;51.022;6.818;2023-04-03T14:37:40;18.00;41.90
6407;DHT22;3236;51.022;6.818;2023-04-03T14:40:08;17.50;40.70
6407;DHT22;3236;51.022;6.818;2023-04-03T14:42:45;18.40;42.60
6407;DHT22;3236;51.022;6.818;2023-04-03T14:45:18;18.50;38.60
6407;DHT22;3236;51.022;6.818;2023-04-03T14:47:47;18.70;42.00
6407;DHT22;3236;51.022;6.818;2023-04-03T14:50:19;18.40;39.60
6407;DHT22;3236;51.022;6.818;2023-04-03T14:52:48;18.50;39.40
6407;DHT22;3236;51.022;6.818;2023-04-03T14:55:21;18.00;38.60
6407;DHT22;3236;51.022;6.818;2023-04-03T14:57:48;18.10;41.30
6407;DHT22;3236;51.022;6.818;2023-04-03T15:00:22;18.60;41.40
6407;DHT22;3236;51.022;6.818;2023-04-03T15:02:51;18.30;36.70
6407;DHT22;3236;51.022;6.818;2023-04-03T15:05:23;18.00;37.90
6407;DHT22;3236;51.022;6.818;2023-04-03T15:07:54;16.90;38.10
6407;DHT22;3236;51.022;6.818;2023-04-03T15:10:23;16.50;38.60
6407;DHT22;3236;51.022;6.818;2023-04-03T15:12:58;16.20;41.80
6407;DHT22;3236;51.022;6.818;2023-04-03T15:15:28;17.10;41.50
6407;DHT22;3236;51.022;6.818;2023-04-03T15:18:00;19.20;41.70
6407;DHT22;3236;51.022;6.818;2023-04-03T15:20:28;18.00;39.20
6407;DHT22;3236;51.022;6.818;2023-04-03T15:22:56;18.00;39.80
6407;DHT22;3236;51.022;6.818;2023-04-03T15:25:27;17.60;38.60
6407;DHT22;3236;51.022;6.818;2023-04-03T15:27:58;17.10;39.70
6407;DHT22;3236;51.022;6.818;2023-04-03T15:30:29;16.60;42.60
6407;DHT22;3236;51.022;6.818;2023-04-03T15:35:25;17.00;40.00
6407;DHT22;3236;51.022;6.818;2023-04-03T15:37:58;17.10;41.10
6407;DHT22;3236;51.022;6.818;2023-04-03T15:45:35;16.50;39.20
6407;DHT22;3236;51.022;6.818;2023-04-03T15:50:40;16.50;41.30
6407;DHT22;3236;51.022;6.818;2023-04-03T15:53:07;16.60;42.40
6407;DHT22;3236;51.022;6.818;2023-04-03T15:55:37;17.20;41.70
6407;DHT22;3236;51.022;6.818;2023-04-03T15:58:04;17.40;40.10
6407;DHT22;3236;51.022;6.818;2023-04-03T16:00:32;17.60;41.10
6407;DHT22;3236;51.022;6.818;2023-04-03T16:03:02;17.40;39.90
6407;DHT22;3236;51.022;6.818;2023-04-03T17:57:21;7.50;68.70
6407;DHT22;3236;51.022;6.818;2023-04-03T18:10:02;7.10;71.30
6407;DHT22;3236;51.022;6.818;2023-04-03T18:27:59;6.50;74.60
6407;DHT22;3236;51.022;6.818;2023-04-03T18:32:59;6.40;74.80
6407;DHT22;3236;51.022;6.818;2023-04-03T18:35:27;6.30;75.00
6407;DHT22;3236;51.022;6.818;2023-04-03T18:38:00;6.30;75.00
6407;DHT22;3236;51.022;6.818;2023-04-03T18:40:30;6.30;75.00
6407;DHT22;3236;51.022;6.818;2023-04-03T18:43:01;6.30;76.10
6407;DHT22;3236;51.022;6.818;2023-04-03T18:48:00;6.20;76.60
6407;DHT22;3236;51.022;6.818;2023-04-03T18:50:28;6.10;77.50
6407;DHT22;3236;51.022;6.818;2023-04-03T18:52:56;6.00;78.10
6407;DHT22;3236;51.022;6.818;2023-04-03T18:55:25;6.30;78.90
6407;DHT22;3236;51.022;6.818;2023-04-03T18:58:00;5.90;79.00
6407;DHT22;3236;51.022;6.818;2023-04-03T19:00:31;5.80;78.70
6407;DHT22;3236;51.022;6.818;2023-04-03T19:02:58;5.60;79.30
6407;DHT22;3236;51.022;6.818;2023-04-03T19:05:26;5.70;79.70
6407;DHT22;3236;51.022;6.818;2023-04-03T19:07:54;5.70;79.90
6407;DHT22;3236;51.022;6.818;2023-04-03T19:10:21;6.30;80.90
6407;DHT22;3236;51.022;6.818;2023-04-03T19:12:51;6.00;81.50
6407;DHT22;3236;51.022;6.818;2023-04-03T19:15:19;5.50;81.00
6407;DHT22;3236;51.022;6.818;2023-04-03T19:17:47;5.40;81.90
6407;DHT22;3236;51.022;6.818;2023-04-03T19:20:14;5.20;81.90
6407;DHT22;3236;51.022;6.818;2023-04-03T19:22:42;5.40;81.70
6407;DHT22;3236;51.022;6.818;2023-04-03T19:25:11;5.40;82.40
6407;DHT22;3236;51.022;6.818;2023-04-03T19:27:39;5.10;83.50
6407;DHT22;3236;51.022;6.818;2023-04-03T19:30:11;5.30;83.70
6407;DHT22;3236;51.022;6.818;2023-04-03T19:32:38;5.20;84.60
6407;DHT22;3236;51.022;6.818;2023-04-03T19:35:07;5.10;84.40
6407;DHT22;3236;51.022;6.818;2023-04-03T19:40:06;5.00;85.80
6407;DHT22;3236;51.022;6.818;2023-04-03T19:42:34;4.90;86.00
6407;DHT22;3236;51.022;6.818;2023-04-03T19:45:05;4.70;85.90
6407;DHT22;3236;51.022;6.818;2023-04-03T19:50:06;4.80;86.90
6407;DHT22;3236;51.022;6.818;2023-04-03T19:52:33;4.70;86.80
6407;DHT22;3236;51.022;6.818;2023-04-03T19:55:00;4.70;87.50
6407;DHT22;3236;51.022;6.818;2023-04-03T19:57:27;4.40;88.00